Bothnia — PBLG — position and weather

sailwx.info

Track history (hours):
 
Tides and Currents Weather Stations Pressure Air Temp Water Temp Dewpoint Dewpoint Depression Visibility Wind Speed Wind Dir Waves Ship Positions

Bothnia

Last reported at 2017-Jan-23 07:25 UTC. Time now 2017-Jan-23 14:53 UTC.
Position N 49°57' W 005°06'.

Length 82 m; draft 5.3 m.

Type: Cargo ship. MMSI: 244741000.

Date/timePositionNaut miles runAvg speedWind from/ knotsBaromVisibWave heightAir tempDewpointWater temp
2017-Jan-23 07:25N 49°57' W 005°06'27 9.5
2017-Jan-23 04:33N 50°01' W 004°24'9 9.2
2017-Jan-23 03:33N 50°02' W 004°10'9 9.0
2017-Jan-23 02:33N 50°04' W 003°56'9 8.8
2017-Jan-23 01:33N 50°06' W 003°43'9 9.1
2017-Jan-23 00:33N 50°07' W 003°29'9 9.5
2017-Jan-22 23:33N 50°09' W 003°15'1010.0
2017-Jan-22 22:33N 50°11' W 002°59'1210.4
2017-Jan-22 21:22N 50°13' W 002°40'2210.2
2017-Jan-22 19:12N 50°17' W 002°06'6 9.3
2017-Jan-22 18:31N 50°19' W 001°57'8 8.7
2017-Jan-22 17:34N 50°20' W 001°44'8 8.1
2017-Jan-22 16:33N 50°22' W 001°31'8 7.8
2017-Jan-22 15:34N 50°23' W 001°19'8 8.0
2017-Jan-22 14:33N 50°25' W 001°07'9 8.8
2017-Jan-22 13:30N 50°26' W 000°53'9 9.9
2017-Jan-22 12:33N 50°28' W 000°38'1110.4
2017-Jan-22 11:29N 50°30' W 000°21'1010.6
2017-Jan-22 10:33N 50°32' W 000°06'1110.6
2017-Jan-22 09:32N 50°35' E 000°11'1010.5
2017-Jan-22 08:33N 50°37' E 000°26'1010.0
2017-Jan-22 07:33N 50°42' E 000°40'21 9.7
2017-Jan-22 05:20N 50°55' E 001°08'8 9.9
2017-Jan-22 04:32N 50°60' E 001°17'1110.8
2017-Jan-22 03:33N 51°06' E 001°30'1211.6
2017-Jan-22 02:33N 51°14' E 001°45'1111.2
2017-Jan-22 01:33N 51°23' E 001°55'1110.5
2017-Jan-22 00:33N 51°32' E 002°05'10 9.9
2017-Jan-21 23:32N 51°39' E 002°15'119 9.9
2017-Jan-21 11:31N 53°10' E 004°21'22 9.1
2017-Jan-21 09:08N 53°28' E 004°40'610.4
2017-Jan-21 08:32N 53°30' E 004°50'1110.9
2017-Jan-21 07:33N 53°34' E 005°07'1111.1
2017-Jan-21 06:33N 53°38' E 005°24'1110.9
2017-Jan-21 05:32N 53°41' E 005°42'1110.4
2017-Jan-21 04:31N 53°44' E 005°59'9 9.8
2017-Jan-21 03:33N 53°47' E 006°14'9 9.1
2017-Jan-21 02:33N 53°50' E 006°29'50 9.7
2017-Jan-20 21:26N 54°02' E 007°51'1011.3
2017-Jan-20 20:32N 54°01' E 008°08'1212.3
2017-Jan-20 19:33N 53°59' E 008°28'10 9.9
2017-Jan-20 18:32N 53°53' E 008°43'8 7.9
2017-Jan-20 17:34N 53°51' E 008°55'8 7.8
2017-Jan-20 16:33N 53°53' E 009°08'7 7.3
2017-Jan-20 15:33N 53°51' E 009°20'10 9.6
2017-Jan-20 14:33N 53°43' E 009°29'1111.3
2017-Jan-20 13:33N 53°34' E 009°41'1010.3
2017-Jan-20 12:33N 53°31' E 009°57'1 0.7
2017-Jan-20 11:33N 53°30' E 009°58'0 0.0
2017-Jan-20 10:33N 53°30' E 009°58'0 0.0
2017-Jan-20 09:33N 53°30' E 009°58'0 0.0
2017-Jan-20 08:33N 53°30' E 009°58'0 0.0
2017-Jan-20 07:33N 53°30' E 009°58'0 0.0
2017-Jan-20 06:33N 53°30' E 009°58'0 0.0
2017-Jan-20 05:33N 53°30' E 009°58'0 0.0
2017-Jan-20 04:33N 53°30' E 009°58'0 0.0
2017-Jan-20 03:33N 53°30' E 009°58'0 0.0
2017-Jan-20 02:33N 53°30' E 009°58'0 0.0
2017-Jan-20 01:33N 53°30' E 009°58'0 0.0
2017-Jan-20 00:33N 53°30' E 009°58'0 0.0
2017-Jan-19 23:33N 53°30' E 009°58'0 0.0
2017-Jan-19 22:33N 53°30' E 009°58'0 0.0
2017-Jan-19 21:33N 53°30' E 009°58'0 0.0
2017-Jan-19 20:33N 53°30' E 009°58'0 0.0
2017-Jan-19 19:33N 53°30' E 009°58'0 0.1
2017-Jan-19 18:33N 53°30' E 009°57'9 9.2
2017-Jan-19 17:33N 53°34' E 009°43'1211.9
2017-Jan-19 16:33N 53°42' E 009°29'1313.0
2017-Jan-19 15:34N 53°52' E 009°15'1313.1
2017-Jan-19 14:33N 53°50' E 008°53'1111.3
2017-Jan-19 13:33N 53°57' E 008°37'1212.6
2017-Jan-19 12:33N 53°59' E 008°16'1212.1
2017-Jan-19 11:33N 53°57' E 007°56'1111.1
2017-Jan-19 10:33N 53°55' E 007°38'1010.4
2017-Jan-19 09:33N 53°52' E 007°21'1110.0
2017-Jan-19 08:28N 53°49' E 007°03'29 9.8
2017-Jan-19 05:31N 53°43' E 006°15'1010.1
2017-Jan-19 04:31N 53°39' E 005°59'1010.4
2017-Jan-19 03:33N 53°36' E 005°43'1110.5
2017-Jan-19 02:33N 53°33' E 005°26'1110.9
2017-Jan-19 01:29N 53°29' E 005°07'1111.2
2017-Jan-19 00:33N 53°25' E 004°51'1110.9
2017-Jan-18 23:33N 53°17' E 004°39'1211.8
2017-Jan-18 22:33N 53°07' E 004°29'1312.2
2017-Jan-18 21:30N 52°56' E 004°19'1312.2
2017-Jan-18 20:27N 52°44' E 004°09'2412.1
2017-Jan-18 18:28N 52°22' E 003°53'1112.2
2017-Jan-18 17:31N 52°11' E 003°54'9 9.8
2017-Jan-18 16:33N 52°02' E 003°57'1212.2
2017-Jan-18 15:33N 51°55' E 004°14'10 9.1
2017-Jan-18 14:29N 51°55' E 004°30'3 2.8
2017-Jan-18 13:33N 51°54' E 004°34'0 0.2
2017-Jan-18 12:33N 51°54' E 004°34'0 0.0
2017-Jan-18 11:33N 51°54' E 004°34'0 0.0
2017-Jan-18 10:33N 51°54' E 004°34'0 0.0
2017-Jan-18 09:33N 51°54' E 004°34'0 0.0
2017-Jan-18 08:33N 51°54' E 004°34'0 0.0
2017-Jan-18 07:33N 51°54' E 004°34'0 0.0
2017-Jan-18 06:33N 51°54' E 004°34'0 0.0
2017-Jan-18 05:33N 51°54' E 004°34'0 0.0
2017-Jan-18 04:33N 51°54' E 004°34'0 0.0
2017-Jan-18 03:33N 51°54' E 004°34'0 0.0
2017-Jan-18 02:33N 51°54' E 004°34'0 0.0
2017-Jan-18 01:33N 51°54' E 004°34'0 0.0
2017-Jan-18 00:33N 51°54' E 004°34'0 0.0
2017-Jan-17 23:33N 51°54' E 004°34'0 0.0
2017-Jan-17 22:33N 51°54' E 004°34'0 0.0
2017-Jan-17 21:33N 51°54' E 004°34'0 0.0
2017-Jan-17 20:33N 51°54' E 004°34'0 0.0
2017-Jan-17 19:30N 51°54' E 004°34'0 0.0
2017-Jan-17 18:33N 51°54' E 004°34'0 0.0
2017-Jan-17 17:33N 51°54' E 004°34'0 0.0
2017-Jan-17 16:33N 51°54' E 004°34'0 0.0
2017-Jan-17 15:33N 51°54' E 004°34'0 0.0
2017-Jan-17 14:33N 51°54' E 004°34'0 0.0
2017-Jan-17 13:33N 51°54' E 004°34'0 0.0
2017-Jan-17 12:33N 51°54' E 004°34'0 0.0
2017-Jan-17 11:33N 51°54' E 004°34'0 0.0
2017-Jan-17 10:33N 51°54' E 004°34'0 0.0
2017-Jan-17 09:33N 51°54' E 004°34'0 0.0
2017-Jan-17 08:33N 51°54' E 004°34'0 0.0
2017-Jan-17 07:33N 51°54' E 004°34'0 0.0
2017-Jan-17 06:33N 51°54' E 004°34'0 0.0
2017-Jan-17 05:33N 51°54' E 004°34'0 0.0
2017-Jan-17 04:33N 51°54' E 004°34'0 0.0
2017-Jan-17 03:32N 51°54' E 004°34'0 0.0
2017-Jan-17 02:32N 51°54' E 004°34'0 0.0
2017-Jan-17 01:32N 51°54' E 004°34'0 0.0
2017-Jan-17 00:32N 51°54' E 004°34'0 0.0
2017-Jan-16 23:33N 51°54' E 004°34'0 0.0
2017-Jan-16 22:33N 51°54' E 004°34'0 0.0
2017-Jan-16 21:33N 51°54' E 004°34'0 0.0
2017-Jan-16 20:33N 51°54' E 004°34'0 0.0
2017-Jan-16 19:33N 51°54' E 004°34'0 0.0
2017-Jan-16 18:33N 51°54' E 004°34'0 0.0
2017-Jan-16 17:33N 51°54' E 004°34'0 0.0
2017-Jan-16 16:33N 51°54' E 004°34'0 0.0
2017-Jan-16 15:33N 51°54' E 004°34'0 0.0
2017-Jan-16 14:32N 51°54' E 004°34'0 0.0
2017-Jan-16 13:32N 51°54' E 004°34'0 0.0
2017-Jan-16 12:32N 51°54' E 004°34'0 0.0
2017-Jan-16 11:29N 51°54' E 004°34'0 0.0
2017-Jan-16 10:32N 51°54' E 004°34'0 0.0
2017-Jan-16 09:32N 51°54' E 004°34'0 0.0
2017-Jan-16 08:32N 51°54' E 004°34'0 0.0
2017-Jan-16 07:32N 51°54' E 004°34'0 0.0
2017-Jan-16 06:32N 51°54' E 004°34'0 0.0
2017-Jan-16 05:32N 51°54' E 004°34'0 0.0
2017-Jan-16 04:32N 51°54' E 004°34'0 0.0
2017-Jan-16 03:32N 51°54' E 004°34'0 0.0
2017-Jan-16 02:32N 51°54' E 004°34'0 0.0
2017-Jan-16 01:32N 51°54' E 004°34'0 0.0
2017-Jan-16 00:32N 51°54' E 004°34'0 0.0
2017-Jan-15 23:32N 51°54' E 004°34'0 0.0
2017-Jan-15 22:32N 51°54' E 004°34'0 0.0
2017-Jan-15 21:32N 51°54' E 004°34'0 0.0
2017-Jan-15 20:32N 51°54' E 004°34'0 0.0
2017-Jan-15 19:32N 51°54' E 004°34'0 0.0
2017-Jan-15 18:32N 51°54' E 004°34'0 0.0
2017-Jan-15 17:32N 51°54' E 004°34'0 0.0
2017-Jan-15 16:31N 51°54' E 004°34'0 0.0
2017-Jan-15 15:31N 51°54' E 004°34'0 0.0
2017-Jan-15 14:31N 51°54' E 004°34'0 0.0
2017-Jan-15 13:31N 51°54' E 004°34'0 0.0
2017-Jan-15 12:25N 51°54' E 004°34'0 0.0
2017-Jan-15 11:31N 51°54' E 004°34'0 0.0
2017-Jan-15 10:32N 51°54' E 004°34'0 0.0
2017-Jan-15 09:28N 51°54' E 004°34'0 0.0
2017-Jan-15 08:32N 51°54' E 004°34'0 0.0
2017-Jan-15 07:32N 51°54' E 004°34'0 0.0
2017-Jan-15 06:32N 51°54' E 004°34'0 0.0
2017-Jan-15 05:32N 51°54' E 004°34'0 0.0
2017-Jan-15 04:32N 51°54' E 004°34'0 0.0
2017-Jan-15 03:32N 51°54' E 004°34'0 0.0
2017-Jan-15 02:31N 51°54' E 004°34'0 0.0
2017-Jan-15 01:32N 51°54' E 004°34'0 0.0
2017-Jan-15 00:32N 51°54' E 004°34'0 0.0
2017-Jan-14 23:31N 51°54' E 004°34'0 0.0
2017-Jan-14 22:31N 51°54' E 004°34'0 0.0
2017-Jan-14 21:31N 51°54' E 004°34'0 0.0
2017-Jan-14 20:31N 51°54' E 004°34'0 0.0
2017-Jan-14 19:31N 51°54' E 004°34'0 0.0
2017-Jan-14 18:31N 51°54' E 004°34'0 0.0
2017-Jan-14 17:31N 51°54' E 004°34'0 0.0
2017-Jan-14 16:31N 51°54' E 004°34'0 0.0
2017-Jan-14 15:31N 51°54' E 004°34'0 0.0
2017-Jan-14 14:31N 51°54' E 004°34'0 0.0
2017-Jan-14 13:31N 51°54' E 004°34'0 0.0
2017-Jan-14 12:31N 51°54' E 004°34'0 0.0
2017-Jan-14 11:31N 51°54' E 004°34'0 0.0
2017-Jan-14 10:31N 51°54' E 004°34'0 0.0
2017-Jan-14 09:31N 51°54' E 004°34'0 0.0
2017-Jan-14 08:31N 51°54' E 004°34'0 0.0
2017-Jan-14 07:33N 51°54' E 004°34'0 0.0
2017-Jan-14 06:33N 51°54' E 004°34'0 0.0
2017-Jan-14 05:33N 51°54' E 004°34'0 0.0
2017-Jan-14 04:34N 51°54' E 004°34'0 0.0
2017-Jan-14 03:34N 51°54' E 004°34'0 0.0
2017-Jan-13 23:33N 51°54' E 004°34'0 0.0
2017-Jan-13 22:33N 51°54' E 004°34'0 0.0
2017-Jan-13 21:33N 51°54' E 004°34'0 0.0
2017-Jan-13 20:34N 51°54' E 004°34'0 0.0
2017-Jan-13 19:33N 51°54' E 004°34'0 0.0
2017-Jan-13 18:33N 51°54' E 004°34'0 0.0
2017-Jan-13 17:34N 51°54' E 004°34'0 0.0
2017-Jan-13 16:33N 51°54' E 004°34'0 0.0
2017-Jan-13 15:33N 51°54' E 004°34'0 0.0
2017-Jan-13 14:33N 51°54' E 004°34'0 0.0
2017-Jan-13 13:33N 51°54' E 004°34'0 0.0
2017-Jan-13 12:33N 51°54' E 004°34'0 0.0
2017-Jan-13 11:28N 51°54' E 004°34'0 0.0
2017-Jan-13 10:33N 51°54' E 004°34'  
Track history (hours):
 
Tides and Currents Weather Stations Pressure Air Temp Water Temp Dewpoint Dewpoint Depression Visibility Wind Speed Wind Dir Waves Ship Positions

Bothnia

Last reported at 2017-Jan-23 07:25 UTC. Time now 2017-Jan-23 14:53 UTC.
Position N 49°57' W 005°06'.

Length 82 m; draft 5.3 m.

Type: Cargo ship. MMSI: 244741000.

Date/timePositionNaut miles runAvg speedWind from/ knotsBaromVisibWave heightAir tempDewpointWater temp
2017-Jan-23 07:25N 49°57' W 005°06'27 9.5
2017-Jan-23 04:33N 50°01' W 004°24'9 9.2
2017-Jan-23 03:33N 50°02' W 004°10'9 9.0
2017-Jan-23 02:33N 50°04' W 003°56'9 8.8
2017-Jan-23 01:33N 50°06' W 003°43'9 9.1
2017-Jan-23 00:33N 50°07' W 003°29'9 9.5
2017-Jan-22 23:33N 50°09' W 003°15'1010.0
2017-Jan-22 22:33N 50°11' W 002°59'1210.4
2017-Jan-22 21:22N 50°13' W 002°40'2210.2
2017-Jan-22 19:12N 50°17' W 002°06'6 9.3
2017-Jan-22 18:31N 50°19' W 001°57'8 8.7
2017-Jan-22 17:34N 50°20' W 001°44'8 8.1
2017-Jan-22 16:33N 50°22' W 001°31'8 7.8
2017-Jan-22 15:34N 50°23' W 001°19'8 8.0
2017-Jan-22 14:33N 50°25' W 001°07'9 8.8
2017-Jan-22 13:30N 50°26' W 000°53'9 9.9
2017-Jan-22 12:33N 50°28' W 000°38'1110.4
2017-Jan-22 11:29N 50°30' W 000°21'1010.6
2017-Jan-22 10:33N 50°32' W 000°06'1110.6
2017-Jan-22 09:32N 50°35' E 000°11'1010.5
2017-Jan-22 08:33N 50°37' E 000°26'1010.0
2017-Jan-22 07:33N 50°42' E 000°40'21 9.7
2017-Jan-22 05:20N 50°55' E 001°08'8 9.9
2017-Jan-22 04:32N 50°60' E 001°17'1110.8
2017-Jan-22 03:33N 51°06' E 001°30'1211.6
2017-Jan-22 02:33N 51°14' E 001°45'1111.2
2017-Jan-22 01:33N 51°23' E 001°55'1110.5
2017-Jan-22 00:33N 51°32' E 002°05'10 9.9
2017-Jan-21 23:32N 51°39' E 002°15'119 9.9
2017-Jan-21 11:31N 53°10' E 004°21'22 9.1
2017-Jan-21 09:08N 53°28' E 004°40'610.4
2017-Jan-21 08:32N 53°30' E 004°50'1110.9
2017-Jan-21 07:33N 53°34' E 005°07'1111.1
2017-Jan-21 06:33N 53°38' E 005°24'1110.9
2017-Jan-21 05:32N 53°41' E 005°42'1110.4
2017-Jan-21 04:31N 53°44' E 005°59'9 9.8
2017-Jan-21 03:33N 53°47' E 006°14'9 9.1
2017-Jan-21 02:33N 53°50' E 006°29'50 9.7
2017-Jan-20 21:26N 54°02' E 007°51'1011.3
2017-Jan-20 20:32N 54°01' E 008°08'1212.3
2017-Jan-20 19:33N 53°59' E 008°28'10 9.9
2017-Jan-20 18:32N 53°53' E 008°43'8 7.9
2017-Jan-20 17:34N 53°51' E 008°55'8 7.8
2017-Jan-20 16:33N 53°53' E 009°08'7 7.3
2017-Jan-20 15:33N 53°51' E 009°20'10 9.6
2017-Jan-20 14:33N 53°43' E 009°29'1111.3
2017-Jan-20 13:33N 53°34' E 009°41'1010.3
2017-Jan-20 12:33N 53°31' E 009°57'1 0.7
2017-Jan-20 11:33N 53°30' E 009°58'0 0.0
2017-Jan-20 10:33N 53°30' E 009°58'0 0.0
2017-Jan-20 09:33N 53°30' E 009°58'0 0.0
2017-Jan-20 08:33N 53°30' E 009°58'0 0.0
2017-Jan-20 07:33N 53°30' E 009°58'0 0.0
2017-Jan-20 06:33N 53°30' E 009°58'0 0.0
2017-Jan-20 05:33N 53°30' E 009°58'0 0.0
2017-Jan-20 04:33N 53°30' E 009°58'0 0.0
2017-Jan-20 03:33N 53°30' E 009°58'0 0.0
2017-Jan-20 02:33N 53°30' E 009°58'0 0.0
2017-Jan-20 01:33N 53°30' E 009°58'0 0.0
2017-Jan-20 00:33N 53°30' E 009°58'0 0.0
2017-Jan-19 23:33N 53°30' E 009°58'0 0.0
2017-Jan-19 22:33N 53°30' E 009°58'0 0.0
2017-Jan-19 21:33N 53°30' E 009°58'0 0.0
2017-Jan-19 20:33N 53°30' E 009°58'0 0.0
2017-Jan-19 19:33N 53°30' E 009°58'0 0.1
2017-Jan-19 18:33N 53°30' E 009°57'9 9.2
2017-Jan-19 17:33N 53°34' E 009°43'1211.9
2017-Jan-19 16:33N 53°42' E 009°29'1313.0
2017-Jan-19 15:34N 53°52' E 009°15'1313.1
2017-Jan-19 14:33N 53°50' E 008°53'1111.3
2017-Jan-19 13:33N 53°57' E 008°37'1212.6
2017-Jan-19 12:33N 53°59' E 008°16'1212.1
2017-Jan-19 11:33N 53°57' E 007°56'1111.1
2017-Jan-19 10:33N 53°55' E 007°38'1010.4
2017-Jan-19 09:33N 53°52' E 007°21'1110.0
2017-Jan-19 08:28N 53°49' E 007°03'29 9.8
2017-Jan-19 05:31N 53°43' E 006°15'1010.1
2017-Jan-19 04:31N 53°39' E 005°59'1010.4
2017-Jan-19 03:33N 53°36' E 005°43'1110.5
2017-Jan-19 02:33N 53°33' E 005°26'1110.9
2017-Jan-19 01:29N 53°29' E 005°07'1111.2
2017-Jan-19 00:33N 53°25' E 004°51'1110.9
2017-Jan-18 23:33N 53°17' E 004°39'1211.8
2017-Jan-18 22:33N 53°07' E 004°29'1312.2
2017-Jan-18 21:30N 52°56' E 004°19'1312.2
2017-Jan-18 20:27N 52°44' E 004°09'2412.1
2017-Jan-18 18:28N 52°22' E 003°53'1112.2
2017-Jan-18 17:31N 52°11' E 003°54'9 9.8
2017-Jan-18 16:33N 52°02' E 003°57'1212.2
2017-Jan-18 15:33N 51°55' E 004°14'10 9.1
2017-Jan-18 14:29N 51°55' E 004°30'3 2.8
2017-Jan-18 13:33N 51°54' E 004°34'0 0.2
2017-Jan-18 12:33N 51°54' E 004°34'0 0.0
2017-Jan-18 11:33N 51°54' E 004°34'0 0.0
2017-Jan-18 10:33N 51°54' E 004°34'0 0.0
2017-Jan-18 09:33N 51°54' E 004°34'0 0.0
2017-Jan-18 08:33N 51°54' E 004°34'0 0.0
2017-Jan-18 07:33N 51°54' E 004°34'0 0.0
2017-Jan-18 06:33N 51°54' E 004°34'0 0.0
2017-Jan-18 05:33N 51°54' E 004°34'0 0.0
2017-Jan-18 04:33N 51°54' E 004°34'0 0.0
2017-Jan-18 03:33N 51°54' E 004°34'0 0.0
2017-Jan-18 02:33N 51°54' E 004°34'0 0.0
2017-Jan-18 01:33N 51°54' E 004°34'0 0.0
2017-Jan-18 00:33N 51°54' E 004°34'0 0.0
2017-Jan-17 23:33N 51°54' E 004°34'0 0.0
2017-Jan-17 22:33N 51°54' E 004°34'0 0.0
2017-Jan-17 21:33N 51°54' E 004°34'0 0.0
2017-Jan-17 20:33N 51°54' E 004°34'0 0.0
2017-Jan-17 19:30N 51°54' E 004°34'0 0.0
2017-Jan-17 18:33N 51°54' E 004°34'0 0.0
2017-Jan-17 17:33N 51°54' E 004°34'0 0.0
2017-Jan-17 16:33N 51°54' E 004°34'0 0.0
2017-Jan-17 15:33N 51°54' E 004°34'0 0.0
2017-Jan-17 14:33N 51°54' E 004°34'0 0.0
2017-Jan-17 13:33N 51°54' E 004°34'0 0.0
2017-Jan-17 12:33N 51°54' E 004°34'0 0.0
2017-Jan-17 11:33N 51°54' E 004°34'0 0.0
2017-Jan-17 10:33N 51°54' E 004°34'0 0.0
2017-Jan-17 09:33N 51°54' E 004°34'0 0.0
2017-Jan-17 08:33N 51°54' E 004°34'0 0.0
2017-Jan-17 07:33N 51°54' E 004°34'0 0.0
2017-Jan-17 06:33N 51°54' E 004°34'0 0.0
2017-Jan-17 05:33N 51°54' E 004°34'0 0.0
2017-Jan-17 04:33N 51°54' E 004°34'0 0.0
2017-Jan-17 03:32N 51°54' E 004°34'0 0.0
2017-Jan-17 02:32N 51°54' E 004°34'0 0.0
2017-Jan-17 01:32N 51°54' E 004°34'0 0.0
2017-Jan-17 00:32N 51°54' E 004°34'0 0.0
2017-Jan-16 23:33N 51°54' E 004°34'0 0.0
2017-Jan-16 22:33N 51°54' E 004°34'0 0.0
2017-Jan-16 21:33N 51°54' E 004°34'0 0.0
2017-Jan-16 20:33N 51°54' E 004°34'0 0.0
2017-Jan-16 19:33N 51°54' E 004°34'0 0.0
2017-Jan-16 18:33N 51°54' E 004°34'0 0.0
2017-Jan-16 17:33N 51°54' E 004°34'0 0.0
2017-Jan-16 16:33N 51°54' E 004°34'0 0.0
2017-Jan-16 15:33N 51°54' E 004°34'0 0.0
2017-Jan-16 14:32N 51°54' E 004°34'0 0.0
2017-Jan-16 13:32N 51°54' E 004°34'0 0.0
2017-Jan-16 12:32N 51°54' E 004°34'0 0.0
2017-Jan-16 11:29N 51°54' E 004°34'0 0.0
2017-Jan-16 10:32N 51°54' E 004°34'0 0.0
2017-Jan-16 09:32N 51°54' E 004°34'0 0.0
2017-Jan-16 08:32N 51°54' E 004°34'0 0.0
2017-Jan-16 07:32N 51°54' E 004°34'0 0.0
2017-Jan-16 06:32N 51°54' E 004°34'0 0.0
2017-Jan-16 05:32N 51°54' E 004°34'0 0.0
2017-Jan-16 04:32N 51°54' E 004°34'0 0.0
2017-Jan-16 03:32N 51°54' E 004°34'0 0.0
2017-Jan-16 02:32N 51°54' E 004°34'0 0.0
2017-Jan-16 01:32N 51°54' E 004°34'0 0.0
2017-Jan-16 00:32N 51°54' E 004°34'0 0.0
2017-Jan-15 23:32N 51°54' E 004°34'0 0.0
2017-Jan-15 22:32N 51°54' E 004°34'0 0.0
2017-Jan-15 21:32N 51°54' E 004°34'0 0.0
2017-Jan-15 20:32N 51°54' E 004°34'0 0.0
2017-Jan-15 19:32N 51°54' E 004°34'0 0.0
2017-Jan-15 18:32N 51°54' E 004°34'0 0.0
2017-Jan-15 17:32N 51°54' E 004°34'0 0.0
2017-Jan-15 16:31N 51°54' E 004°34'0 0.0
2017-Jan-15 15:31N 51°54' E 004°34'0 0.0
2017-Jan-15 14:31N 51°54' E 004°34'0 0.0
2017-Jan-15 13:31N 51°54' E 004°34'0 0.0
2017-Jan-15 12:25N 51°54' E 004°34'0 0.0
2017-Jan-15 11:31N 51°54' E 004°34'0 0.0
2017-Jan-15 10:32N 51°54' E 004°34'0 0.0
2017-Jan-15 09:28N 51°54' E 004°34'0 0.0
2017-Jan-15 08:32N 51°54' E 004°34'0 0.0
2017-Jan-15 07:32N 51°54' E 004°34'0 0.0
2017-Jan-15 06:32N 51°54' E 004°34'0 0.0
2017-Jan-15 05:32N 51°54' E 004°34'0 0.0
2017-Jan-15 04:32N 51°54' E 004°34'0 0.0
2017-Jan-15 03:32N 51°54' E 004°34'0 0.0
2017-Jan-15 02:31N 51°54' E 004°34'0 0.0
2017-Jan-15 01:32N 51°54' E 004°34'0 0.0
2017-Jan-15 00:32N 51°54' E 004°34'0 0.0
2017-Jan-14 23:31N 51°54' E 004°34'0 0.0
2017-Jan-14 22:31N 51°54' E 004°34'0 0.0
2017-Jan-14 21:31N 51°54' E 004°34'0 0.0
2017-Jan-14 20:31N 51°54' E 004°34'0 0.0
2017-Jan-14 19:31N 51°54' E 004°34'0 0.0
2017-Jan-14 18:31N 51°54' E 004°34'0 0.0
2017-Jan-14 17:31N 51°54' E 004°34'0 0.0
2017-Jan-14 16:31N 51°54' E 004°34'0 0.0
2017-Jan-14 15:31N 51°54' E 004°34'0 0.0
2017-Jan-14 14:31N 51°54' E 004°34'0 0.0
2017-Jan-14 13:31N 51°54' E 004°34'0 0.0
2017-Jan-14 12:31N 51°54' E 004°34'0 0.0
2017-Jan-14 11:31N 51°54' E 004°34'0 0.0
2017-Jan-14 10:31N 51°54' E 004°34'0 0.0
2017-Jan-14 09:31N 51°54' E 004°34'0 0.0
2017-Jan-14 08:31N 51°54' E 004°34'0 0.0
2017-Jan-14 07:33N 51°54' E 004°34'0 0.0
2017-Jan-14 06:33N 51°54' E 004°34'0 0.0
2017-Jan-14 05:33N 51°54' E 004°34'0 0.0
2017-Jan-14 04:34N 51°54' E 004°34'0 0.0
2017-Jan-14 03:34N 51°54' E 004°34'0 0.0
2017-Jan-13 23:33N 51°54' E 004°34'0 0.0
2017-Jan-13 22:33N 51°54' E 004°34'0 0.0
2017-Jan-13 21:33N 51°54' E 004°34'0 0.0
2017-Jan-13 20:34N 51°54' E 004°34'0 0.0
2017-Jan-13 19:33N 51°54' E 004°34'0 0.0
2017-Jan-13 18:33N 51°54' E 004°34'0 0.0
2017-Jan-13 17:34N 51°54' E 004°34'0 0.0
2017-Jan-13 16:33N 51°54' E 004°34'0 0.0
2017-Jan-13 15:33N 51°54' E 004°34'0 0.0
2017-Jan-13 14:33N 51°54' E 004°34'0 0.0
2017-Jan-13 13:33N 51°54' E 004°34'0 0.0
2017-Jan-13 12:33N 51°54' E 004°34'0 0.0
2017-Jan-13 11:28N 51°54' E 004°34'0 0.0
2017-Jan-13 10:33N 51°54' E 004°34'  

Dump ship's entire track history